Time;durP1;ratioP1;P1;durP2;ratioP2;P2;SDS_P1;SDS_P2;PMS_P1;PMS_P2;Temp;Humidity;BMP_temperature;BMP_pressure;BME280_temperature;BME280_humidity;BME280_pressure;Samples;Min_cycle;Max_cycle;Signal;HPM_P1;HPM_P2
2022/03/24 00:00:38;;;;;;;37.30;22.40;;;;;;;;;;5033948;28;20440;-47
2022/03/24 00:03:05;;;;;;;38.37;22.20;;;;;;;;;;5033969;28;20492;-46
2022/03/24 00:05:31;;;;;;;41.50;22.60;;;;;;;;;;5034180;28;20407;-46
2022/03/24 00:07:57;;;;;;;44.83;22.47;;;;;;;;;;5034251;28;20417;-47
2022/03/24 00:10:23;;;;;;;45.20;21.83;;;;;;;;;;5033769;28;20409;-47
2022/03/24 00:12:51;;;;;;;42.17;22.13;;;;;;;;;;5033666;28;20423;-46
2022/03/24 00:15:17;;;;;;;39.97;23.00;;;;;;;;;;5033958;28;20485;-47
2022/03/24 00:17:44;;;;;;;43.30;22.93;;;;;;;;;;5033956;28;20402;-46
2022/03/24 00:20:12;;;;;;;43.53;23.10;;;;;;;;;;5033863;28;20798;-46
2022/03/24 00:22:38;;;;;;;39.63;23.47;;;;;;;;;;5033470;28;20963;-46
2022/03/24 00:25:04;;;;;;;44.33;23.80;;;;;;;;;;5033548;28;20400;-47
2022/03/24 00:27:31;;;;;;;56.57;23.90;;;;;;;;;;5033891;28;20395;-47
2022/03/24 00:29:57;;;;;;;36.73;22.77;;;;;;;;;;5033403;28;20397;-48
2022/03/24 00:32:23;;;;;;;52.10;24.13;;;;;;;;;;5033569;28;20832;-48
2022/03/24 00:34:49;;;;;;;53.10;22.70;;;;;;;;;;5033509;28;20450;-49
2022/03/24 00:37:17;;;;;;;44.70;24.47;;;;;;;;;;5033332;28;20922;-50
2022/03/24 00:39:42;;;;;;;50.77;23.93;;;;;;;;;;5033199;28;20419;-46
2022/03/24 00:42:11;;;;;;;48.83;24.33;;;;;;;;;;5033083;28;20464;-46
2022/03/24 00:44:37;;;;;;;45.90;25.33;;;;;;;;;;5033293;28;20409;-50
2022/03/24 00:47:04;;;;;;;39.20;23.03;;;;;;;;;;5033177;28;20400;-51
2022/03/24 00:49:30;;;;;;;50.67;23.80;;;;;;;;;;5032898;28;20640;-50
2022/03/24 00:51:56;;;;;;;43.93;22.30;;;;;;;;;;5032936;28;20435;-50
2022/03/24 00:54:22;;;;;;;48.00;23.30;;;;;;;;;;5032896;28;20770;-50
2022/03/24 00:56:48;;;;;;;40.83;22.90;;;;;;;;;;5033145;28;20402;-49
2022/03/24 00:59:14;;;;;;;36.67;24.00;;;;;;;;;;5032766;28;20988;-50
2022/03/24 01:01:41;;;;;;;43.23;24.00;;;;;;;;;;5032690;28;20428;-49
2022/03/24 01:04:09;;;;;;;39.50;23.63;;;;;;;;;;5032805;28;20481;-49
2022/03/24 01:06:35;;;;;;;48.10;22.53;;;;;;;;;;5032739;28;20407;-50
2022/03/24 01:09:02;;;;;;;35.53;22.13;;;;;;;;;;5032711;28;20899;-50
2022/03/24 01:11:28;;;;;;;43.37;23.57;;;;;;;;;;5032380;28;20954;-49
2022/03/24 01:13:54;;;;;;;45.03;23.50;;;;;;;;;;5033482;28;20818;-48
2022/03/24 01:16:22;;;;;;;52.27;26.17;;;;;;;;;;5032708;28;20424;-49
2022/03/24 01:18:48;;;;;;;46.93;24.70;;;;;;;;;;5032695;28;20407;-48
2022/03/24 01:21:16;;;;;;;56.30;23.80;;;;;;;;;;5032223;28;20898;-49
2022/03/24 01:23:43;;;;;;;54.03;25.87;;;;;;;;;;5032642;28;20541;-47
2022/03/24 01:26:11;;;;;;;58.13;25.73;;;;;;;;;;5032542;28;20398;-47
2022/03/24 01:28:37;;;;;;;56.25;23.80;;;;;;;;;;5032353;28;20916;-47
2022/03/24 01:31:03;;;;;;;49.10;24.80;;;;;;;;;;5032148;28;20176;-47
2022/03/24 01:33:29;;;;;;;39.67;24.80;;;;;;;;;;5032020;28;20394;-47
2022/03/24 01:35:55;;;;;;;38.93;24.03;;;;;;;;;;5031673;28;20457;-49
2022/03/24 01:38:22;;;;;;;49.30;23.43;;;;;;;;;;5032209;28;20399;-49
2022/03/24 01:40:48;;;;;;;40.90;24.43;;;;;;;;;;5032179;28;20433;-46
2022/03/24 01:43:14;;;;;;;43.72;23.85;;;;;;;;;;5031988;28;20454;-46
2022/03/24 01:45:40;;;;;;;39.87;23.10;;;;;;;;;;5032191;28;20644;-47
2022/03/24 01:48:11;;;;;;;38.93;22.33;;;;;;;;;;5032171;28;20387;-47
2022/03/24 01:50:39;;;;;;;37.03;22.97;;;;;;;;;;5031740;28;20418;-48
2022/03/24 01:53:05;;;;;;;41.08;22.00;;;;;;;;;;5031920;28;20476;-46
2022/03/24 01:55:33;;;;;;;42.00;23.87;;;;;;;;;;5032006;28;20545;-47
2022/03/24 01:57:59;;;;;;;34.10;22.07;;;;;;;;;;5032031;28;20410;-47
2022/03/24 02:00:25;;;;;;;49.20;24.60;;;;;;;;;;5031707;28;20951;-47
2022/03/24 02:02:53;;;;;;;42.93;22.17;;;;;;;;;;5030866;28;20497;-48
2022/03/24 02:05:19;;;;;;;40.53;22.70;;;;;;;;;;5031480;28;20912;-47
2022/03/24 02:07:45;;;;;;;49.77;24.50;;;;;;;;;;5031605;28;20437;-47
2022/03/24 02:10:11;;;;;;;37.07;23.27;;;;;;;;;;5031799;28;20904;-47
2022/03/24 02:12:37;;;;;;;42.40;22.80;;;;;;;;;;5031640;28;20422;-47
2022/03/24 02:15:04;;;;;;;42.10;23.53;;;;;;;;;;5031946;28;20468;-47
2022/03/24 02:17:30;;;;;;;40.40;23.10;;;;;;;;;;5031653;28;20407;-47
2022/03/24 02:20:00;;;;;;;40.10;23.65;;;;;;;;;;5031424;28;20430;-48
2022/03/24 02:22:26;;;;;;;44.13;24.50;;;;;;;;;;5031556;28;20282;-46
2022/03/24 02:24:52;;;;;;;38.80;23.47;;;;;;;;;;5031650;28;20164;-50
2022/03/24 02:27:18;;;;;;;35.33;22.60;;;;;;;;;;5031653;28;20424;-51
2022/03/24 02:29:47;;;;;;;38.90;22.30;;;;;;;;;;5031404;28;20422;-46
2022/03/24 02:32:20;;;;;;;42.67;26.30;;;;;;;;;;5031400;28;20974;-46
2022/03/24 02:34:51;;;;;;;41.67;23.50;;;;;;;;;;5031581;28;20425;-47
2022/03/24 02:37:25;;;;;;;48.17;26.03;;;;;;;;;;5031858;28;20163;-48
2022/03/24 02:39:55;;;;;;;38.23;22.57;;;;;;;;;;5031322;28;20403;-47
2022/03/24 02:42:22;;;;;;;36.40;23.58;;;;;;;;;;5031336;28;20485;-47
2022/03/24 02:44:50;;;;;;;40.23;24.20;;;;;;;;;;5031517;28;20164;-47
2022/03/24 02:47:16;;;;;;;44.57;24.50;;;;;;;;;;5035063;28;20423;-50
2022/03/24 02:49:44;;;;;;;48.22;26.40;;;;;;;;;;5035152;28;20394;-46
2022/03/24 02:52:10;;;;;;;39.53;25.03;;;;;;;;;;5035228;28;20669;-46
2022/03/24 02:54:37;;;;;;;49.28;27.75;;;;;;;;;;5035257;28;20402;-49
2022/03/24 02:57:03;;;;;;;51.77;27.93;;;;;;;;;;5035245;28;20168;-47
2022/03/24 02:59:29;;;;;;;53.42;28.27;;;;;;;;;;5034890;28;20410;-46
2022/03/24 03:02:02;;;;;;;49.63;28.43;;;;;;;;;;5035328;28;20317;-46
2022/03/24 03:04:29;;;;;;;43.92;27.92;;;;;;;;;;5017684;28;20463;-51
2022/03/24 03:06:55;;;;;;;45.70;26.30;;;;;;;;;;5035024;28;20209;-51
2022/03/24 03:12:27;;;;;;;45.92;25.30;;;;;;;;;;5034974;28;20601;-52
2022/03/24 03:14:56;;;;;;;40.00;24.75;;;;;;;;;;5034966;28;20160;-51
2022/03/24 03:17:22;;;;;;;50.03;26.33;;;;;;;;;;5034934;28;20559;-51
2022/03/24 03:19:48;;;;;;;42.33;23.20;;;;;;;;;;5034611;28;20267;-50
2022/03/24 03:22:15;;;;;;;36.10;23.60;;;;;;;;;;5034577;28;20283;-49
2022/03/24 03:24:41;;;;;;;42.63;25.75;;;;;;;;;;5034790;28;20461;-52
2022/03/24 03:27:07;;;;;;;36.30;24.00;;;;;;;;;;5034612;28;20175;-51
2022/03/24 03:29:34;;;;;;;40.03;24.60;;;;;;;;;;5034479;28;20178;-51
2022/03/24 03:32:00;;;;;;;39.10;24.60;;;;;;;;;;5034467;28;20195;-51
2022/03/24 03:34:26;;;;;;;43.42;24.38;;;;;;;;;;5034535;28;20550;-51
2022/03/24 03:36:56;;;;;;;37.87;24.10;;;;;;;;;;5034982;28;20176;-51
2022/03/24 03:39:22;;;;;;;41.35;25.33;;;;;;;;;;5034180;28;20882;-51
2022/03/24 03:41:48;;;;;;;42.55;26.02;;;;;;;;;;5034161;28;20191;-52
2022/03/24 03:44:15;;;;;;;49.20;25.33;;;;;;;;;;5034759;28;20182;-51
2022/03/24 03:46:41;;;;;;;40.25;24.77;;;;;;;;;;5034430;28;20398;-51
2022/03/24 03:49:07;;;;;;;42.10;25.73;;;;;;;;;;5034259;28;20178;-52
2022/03/24 03:51:34;;;;;;;38.72;24.95;;;;;;;;;;5034097;28;20422;-52
2022/03/24 03:54:00;;;;;;;46.60;25.48;;;;;;;;;;5034203;28;20230;-52
2022/03/24 03:56:26;;;;;;;44.38;25.30;;;;;;;;;;5034164;28;20765;-51
2022/03/24 03:58:52;;;;;;;41.60;23.60;;;;;;;;;;5033294;28;20177;-51
2022/03/24 04:01:18;;;;;;;44.03;24.83;;;;;;;;;;5034019;28;20804;-51
2022/03/24 04:03:44;;;;;;;36.45;23.55;;;;;;;;;;5033834;28;20450;-51
2022/03/24 04:06:12;;;;;;;46.92;22.95;;;;;;;;;;5034040;28;20194;-51
2022/03/24 04:08:39;;;;;;;41.17;24.23;;;;;;;;;;5034467;28;20532;-51
2022/03/24 04:11:07;;;;;;;49.65;23.67;;;;;;;;;;5033722;28;20203;-51
2022/03/24 04:13:34;;;;;;;44.28;23.85;;;;;;;;;;5033895;28;20241;-52
2022/03/24 04:16:00;;;;;;;44.55;25.23;;;;;;;;;;5033830;28;20168;-50
2022/03/24 04:18:25;;;;;;;42.17;23.80;;;;;;;;;;5033751;28;20171;-51
2022/03/24 04:20:52;;;;;;;47.20;25.07;;;;;;;;;;5033593;28;20445;-49
2022/03/24 04:23:18;;;;;;;45.72;25.90;;;;;;;;;;5033472;28;20450;-48
2022/03/24 04:25:45;;;;;;;47.92;24.30;;;;;;;;;;5033625;28;20168;-48
2022/03/24 04:28:11;;;;;;;40.25;23.83;;;;;;;;;;5033656;28;20159;-48
2022/03/24 04:30:37;;;;;;;39.15;23.88;;;;;;;;;;5033382;28;20633;-48
2022/03/24 04:33:04;;;;;;;39.10;23.85;;;;;;;;;;5033288;28;20570;-48
2022/03/24 04:35:31;;;;;;;48.83;23.35;;;;;;;;;;5033451;28;20254;-47
2022/03/24 04:37:57;;;;;;;42.38;25.20;;;;;;;;;;5033399;28;20168;-50
2022/03/24 04:40:24;;;;;;;41.72;24.08;;;;;;;;;;5033170;28;20544;-48
2022/03/24 04:42:51;;;;;;;54.35;24.98;;;;;;;;;;5033229;28;20692;-48
2022/03/24 04:45:18;;;;;;;44.25;24.13;;;;;;;;;;5033298;28;20163;-49
2022/03/24 04:47:45;;;;;;;40.35;25.45;;;;;;;;;;5033170;28;20167;-49
2022/03/24 04:50:11;;;;;;;46.90;25.90;;;;;;;;;;5032949;28;20163;-48
2022/03/24 04:52:37;;;;;;;43.67;22.23;;;;;;;;;;5033007;28;20195;-49
2022/03/24 04:55:03;;;;;;;46.38;25.40;;;;;;;;;;5033271;28;20182;-48
2022/03/24 04:57:29;;;;;;;52.38;24.63;;;;;;;;;;5033103;28;20270;-47
2022/03/24 04:59:59;;;;;;;47.03;24.95;;;;;;;;;;5032887;28;20556;-48
2022/03/24 05:02:25;;;;;;;41.17;23.00;;;;;;;;;;5032602;28;20573;-48
2022/03/24 05:04:52;;;;;;;41.07;25.27;;;;;;;;;;5032855;28;20178;-48
2022/03/24 05:07:18;;;;;;;42.30;25.02;;;;;;;;;;5032952;28;20410;-48
2022/03/24 05:09:50;;;;;;;44.10;25.65;;;;;;;;;;5032433;28;20163;-48
2022/03/24 05:12:16;;;;;;;44.63;25.33;;;;;;;;;;5032641;28;20180;-48
2022/03/24 05:14:42;;;;;;;40.58;24.10;;;;;;;;;;5032789;28;20183;-48
2022/03/24 05:17:08;;;;;;;42.63;24.98;;;;;;;;;;5032664;28;20164;-48
2022/03/24 05:19:34;;;;;;;47.15;23.67;;;;;;;;;;5032331;28;20171;-49
2022/03/24 05:22:01;;;;;;;41.90;25.17;;;;;;;;;;5032407;28;20238;-48
2022/03/24 05:24:27;;;;;;;43.97;24.10;;;;;;;;;;5032559;28;20171;-48
2022/03/24 05:26:53;;;;;;;39.92;23.33;;;;;;;;;;5032657;28;20214;-49
2022/03/24 05:29:19;;;;;;;42.55;24.95;;;;;;;;;;5032328;28;20270;-49
2022/03/24 05:31:45;;;;;;;43.47;24.50;;;;;;;;;;5032155;28;20304;-48
2022/03/24 05:34:11;;;;;;;40.65;25.73;;;;;;;;;;5032385;28;20800;-48
2022/03/24 05:36:37;;;;;;;39.70;24.55;;;;;;;;;;5032383;28;20168;-49
2022/03/24 05:39:04;;;;;;;44.67;25.60;;;;;;;;;;5032234;28;20514;-48
2022/03/24 05:41:30;;;;;;;50.65;26.27;;;;;;;;;;5032053;28;20707;-49
2022/03/24 05:44:06;;;;;;;49.67;26.33;;;;;;;;;;5032116;28;20211;-48
2022/03/24 05:46:35;;;;;;;50.42;27.33;;;;;;;;;;5032115;28;20763;-49
2022/03/24 05:49:01;;;;;;;47.85;30.58;;;;;;;;;;5032075;28;20178;-47
2022/03/24 05:51:27;;;;;;;55.47;36.95;;;;;;;;;;5031862;28;20263;-50
2022/03/24 05:53:53;;;;;;;65.57;43.38;;;;;;;;;;5032024;28;20250;-48
2022/03/24 05:56:19;;;;;;;71.05;46.78;;;;;;;;;;5032075;28;20171;-48
2022/03/24 05:58:46;;;;;;;88.80;50.50;;;;;;;;;;5032000;28;20221;-48
2022/03/24 06:01:13;;;;;;;68.97;45.13;;;;;;;;;;5031609;28;20182;-47
2022/03/24 06:03:40;;;;;;;65.00;39.80;;;;;;;;;;5030906;28;20689;-48
2022/03/24 06:06:08;;;;;;;75.40;39.10;;;;;;;;;;5014174;28;20168;-51
2022/03/24 06:08:34;;;;;;;64.97;35.17;;;;;;;;;;5031163;28;20195;-51
2022/03/24 06:11:01;;;;;;;60.05;34.97;;;;;;;;;;5031118;28;20174;-52
2022/03/24 06:13:27;;;;;;;53.72;30.33;;;;;;;;;;5031073;28;20595;-51
2022/03/24 06:15:54;;;;;;;46.78;28.10;;;;;;;;;;5031220;28;20884;-51
2022/03/24 06:18:20;;;;;;;59.78;29.50;;;;;;;;;;5031199;28;20175;-51
2022/03/24 06:20:46;;;;;;;60.08;30.85;;;;;;;;;;5029223;28;20247;-49
2022/03/24 06:23:12;;;;;;;53.60;32.17;;;;;;;;;;5018480;28;20215;-49
2022/03/24 06:25:39;;;;;;;55.30;34.83;;;;;;;;;;5016967;28;20247;-50
2022/03/24 06:28:05;;;;;;;70.38;34.42;;;;;;;;;;5016652;28;20168;-50
2022/03/24 06:30:31;;;;;;;74.03;35.03;;;;;;;;;;5017096;28;20176;-51
2022/03/24 06:32:58;;;;;;;78.43;37.45;;;;;;;;;;5018488;28;20199;-50
2022/03/24 06:35:24;;;;;;;90.22;43.05;;;;;;;;;;5018551;28;20541;-51
2022/03/24 06:37:51;;;;;;;68.90;42.83;;;;;;;;;;5018518;28;20172;-52
2022/03/24 06:40:17;;;;;;;69.82;35.67;;;;;;;;;;5018273;28;20585;-52
2022/03/24 06:42:43;;;;;;;58.00;32.78;;;;;;;;;;5018169;28;20192;-52
2022/03/24 06:45:10;;;;;;;73.47;31.97;;;;;;;;;;5018397;28;20167;-52
2022/03/24 06:47:36;;;;;;;62.10;33.60;;;;;;;;;;5018514;28;20400;-51
2022/03/24 06:50:03;;;;;;;53.63;30.53;;;;;;;;;;5018072;28;20931;-50
2022/03/24 06:52:29;;;;;;;54.50;31.47;;;;;;;;;;5018281;28;20438;-51
2022/03/24 06:54:55;;;;;;;56.47;30.47;;;;;;;;;;5018485;28;20403;-53
2022/03/24 06:57:21;;;;;;;47.77;31.63;;;;;;;;;;5018509;28;20410;-52
2022/03/24 06:59:47;;;;;;;53.93;31.37;;;;;;;;;;5018231;28;20415;-47
2022/03/24 07:02:14;;;;;;;51.57;30.70;;;;;;;;;;5018094;28;20947;-47
2022/03/24 07:04:39;;;;;;;60.10;31.20;;;;;;;;;;5018377;28;20418;-47
2022/03/24 07:07:06;;;;;;;59.00;32.27;;;;;;;;;;5018279;28;20405;-48
2022/03/24 07:09:32;;;;;;;57.13;33.70;;;;;;;;;;5018076;28;20408;-47
2022/03/24 07:11:58;;;;;;;58.00;32.03;;;;;;;;;;5018091;28;20422;-48
2022/03/24 07:14:24;;;;;;;58.53;31.60;;;;;;;;;;5018790;28;20385;-50
2022/03/24 07:16:51;;;;;;;48.83;30.97;;;;;;;;;;5018298;28;20379;-52
2022/03/24 07:19:19;;;;;;;58.33;31.20;;;;;;;;;;5023834;28;20980;-52
2022/03/24 07:21:45;;;;;;;54.80;31.97;;;;;;;;;;5019567;28;20428;-49
2022/03/24 07:24:11;;;;;;;43.60;31.30;;;;;;;;;;5018092;28;20410;-49
2022/03/24 07:26:37;;;;;;;48.40;33.77;;;;;;;;;;5018109;28;20407;-49
2022/03/24 07:29:03;;;;;;;55.87;33.60;;;;;;;;;;5017952;28;20410;-49
2022/03/24 07:31:29;;;;;;;51.27;33.50;;;;;;;;;;5017216;28;20423;-48
2022/03/24 07:33:58;;;;;;;50.17;33.40;;;;;;;;;;5014860;28;20961;-50
2022/03/24 07:36:25;;;;;;;43.03;31.80;;;;;;;;;;5014987;28;20407;-51
2022/03/24 07:38:52;;;;;;;45.30;32.63;;;;;;;;;;5014895;28;20770;-51
2022/03/24 07:41:18;;;;;;;45.70;32.50;;;;;;;;;;5014629;28;20412;-50
2022/03/24 07:43:45;;;;;;;49.83;31.83;;;;;;;;;;5014500;28;20950;-50
2022/03/24 07:46:10;;;;;;;50.80;33.10;;;;;;;;;;5014744;28;20425;-49
2022/03/24 07:48:38;;;;;;;49.73;32.77;;;;;;;;;;5014651;28;20775;-50
2022/03/24 07:51:05;;;;;;;51.93;32.87;;;;;;;;;;5014398;28;20403;-51
2022/03/24 07:53:39;;;;;;;48.83;33.67;;;;;;;;;;5014410;28;20410;-49
2022/03/24 07:56:05;;;;;;;50.13;33.20;;;;;;;;;;5014565;28;20450;-51
2022/03/24 07:58:31;;;;;;;45.97;31.00;;;;;;;;;;5014360;28;20403;-50
2022/03/24 08:00:59;;;;;;;40.20;28.20;;;;;;;;;;5014166;28;20408;-50
2022/03/24 08:03:25;;;;;;;42.77;29.23;;;;;;;;;;5014022;28;20500;-51
2022/03/24 08:05:51;;;;;;;45.37;32.20;;;;;;;;;;5014258;28;20825;-50
2022/03/24 08:08:17;;;;;;;36.60;28.77;;;;;;;;;;5014154;28;20903;-52
2022/03/24 08:10:44;;;;;;;39.40;30.40;;;;;;;;;;5013980;28;20407;-50
2022/03/24 08:13:13;;;;;;;37.00;29.93;;;;;;;;;;5013893;28;20951;-50
2022/03/24 08:15:39;;;;;;;47.13;30.37;;;;;;;;;;5014196;28;20414;-50
2022/03/24 08:18:06;;;;;;;45.10;30.83;;;;;;;;;;5014035;28;20403;-49
2022/03/24 08:20:32;;;;;;;43.13;29.80;;;;;;;;;;5013863;28;20415;-50
2022/03/24 08:22:58;;;;;;;38.17;29.50;;;;;;;;;;5013682;28;20560;-50
2022/03/24 08:25:24;;;;;;;37.13;29.20;;;;;;;;;;5013870;28;20462;-52
2022/03/24 08:27:50;;;;;;;36.27;28.93;;;;;;;;;;5013781;28;20427;-52
2022/03/24 08:30:16;;;;;;;44.90;30.93;;;;;;;;;;5013604;28;20404;-49
2022/03/24 08:32:42;;;;;;;38.90;30.27;;;;;;;;;;5013693;28;20492;-49
2022/03/24 08:35:09;;;;;;;40.73;31.03;;;;;;;;;;5013657;28;20403;-50
2022/03/24 08:37:35;;;;;;;38.63;29.70;;;;;;;;;;5013170;28;20423;-51
2022/03/24 08:40:01;;;;;;;38.20;30.60;;;;;;;;;;5012806;28;20395;-50
2022/03/24 08:42:27;;;;;;;40.13;28.57;;;;;;;;;;5015036;28;21057;-49
2022/03/24 08:44:53;;;;;;;39.03;29.27;;;;;;;;;;4995568;28;20503;-50
2022/03/24 08:47:19;;;;;;;41.60;29.73;;;;;;;;;;5013411;28;20412;-51
2022/03/24 08:49:45;;;;;;;35.93;29.20;;;;;;;;;;5011835;28;20442;-50
2022/03/24 08:52:12;;;;;;;42.33;30.10;;;;;;;;;;5013273;28;20491;-51
2022/03/24 08:54:38;;;;;;;36.40;30.00;;;;;;;;;;5013409;28;20537;-49
2022/03/24 08:57:04;;;;;;;37.37;31.83;;;;;;;;;;5013397;28;20514;-50
2022/03/24 08:59:30;;;;;;;43.20;29.30;;;;;;;;;;5012922;28;20430;-51
2022/03/24 09:01:57;;;;;;;37.50;31.00;;;;;;;;;;5013150;28;20430;-50
2022/03/24 09:04:26;;;;;;;41.80;30.77;;;;;;;;;;5012996;28;20512;-50
2022/03/24 09:06:52;;;;;;;36.93;31.40;;;;;;;;;;5013102;28;20511;-50
2022/03/24 09:09:19;;;;;;;41.70;31.17;;;;;;;;;;5012908;28;20406;-50
2022/03/24 09:11:44;;;;;;;36.17;30.40;;;;;;;;;;5012808;28;20506;-50
2022/03/24 09:14:11;;;;;;;37.27;30.30;;;;;;;;;;5012965;28;20490;-50
2022/03/24 09:16:37;;;;;;;47.80;31.80;;;;;;;;;;5012974;28;20391;-50
2022/03/24 09:19:03;;;;;;;40.37;32.30;;;;;;;;;;5012765;28;20446;-51
2022/03/24 09:21:29;;;;;;;41.77;33.30;;;;;;;;;;5012848;28;20419;-50
2022/03/24 09:23:55;;;;;;;41.77;33.87;;;;;;;;;;5012773;28;20871;-51
2022/03/24 09:26:21;;;;;;;42.17;31.60;;;;;;;;;;5012692;28;20903;-51
2022/03/24 09:28:47;;;;;;;46.03;32.77;;;;;;;;;;5012734;28;20407;-50
2022/03/24 09:31:13;;;;;;;45.20;32.97;;;;;;;;;;5012434;28;20406;-51
2022/03/24 09:33:39;;;;;;;42.63;33.40;;;;;;;;;;5012501;28;20498;-50
2022/03/24 09:36:05;;;;;;;46.13;33.90;;;;;;;;;;5012614;28;20818;-50
2022/03/24 09:38:31;;;;;;;40.53;32.93;;;;;;;;;;5012781;28;20403;-49
2022/03/24 09:40:57;;;;;;;44.03;33.43;;;;;;;;;;5012317;28;20434;-49
2022/03/24 09:43:23;;;;;;;45.87;32.80;;;;;;;;;;5012299;28;20455;-49
2022/03/24 09:45:49;;;;;;;40.00;32.27;;;;;;;;;;5012483;28;20403;-51
2022/03/24 09:48:16;;;;;;;42.87;31.60;;;;;;;;;;5012336;28;20914;-53
2022/03/24 09:50:46;;;;;;;43.60;33.73;;;;;;;;;;5012328;28;20403;-53
2022/03/24 09:53:13;;;;;;;45.43;33.10;;;;;;;;;;5012266;28;20473;-53
2022/03/24 09:55:40;;;;;;;43.73;33.00;;;;;;;;;;5011466;28;20449;-52
2022/03/24 09:58:09;;;;;;;47.90;33.40;;;;;;;;;;5012308;28;20806;-52
2022/03/24 10:00:36;;;;;;;47.27;34.03;;;;;;;;;;5012035;28;20568;-53
2022/03/24 10:03:09;;;;;;;53.07;34.60;;;;;;;;;;5011831;28;20841;-52
2022/03/24 10:05:35;;;;;;;44.30;34.03;;;;;;;;;;5012173;28;20403;-53
2022/03/24 10:08:05;;;;;;;48.30;35.73;;;;;;;;;;5014763;28;20418;-52
2022/03/24 10:10:34;;;;;;;48.77;34.67;;;;;;;;;;5011873;28;20411;-53
2022/03/24 10:13:00;;;;;;;45.60;35.77;;;;;;;;;;5011943;28;20418;-54
2022/03/24 10:15:26;;;;;;;42.23;32.17;;;;;;;;;;5011754;28;20403;-52
2022/03/24 10:17:53;;;;;;;44.80;33.60;;;;;;;;;;5010920;28;20403;-52
2022/03/24 10:20:20;;;;;;;44.47;33.37;;;;;;;;;;5011811;28;20412;-53
2022/03/24 10:22:54;;;;;;;42.80;32.40;;;;;;;;;;5011842;28;20450;-53
2022/03/24 10:25:22;;;;;;;40.00;31.93;;;;;;;;;;5011964;28;20833;-52
2022/03/24 10:27:51;;;;;;;40.13;32.50;;;;;;;;;;5011874;28;20399;-51
2022/03/24 10:30:17;;;;;;;42.73;32.70;;;;;;;;;;5011532;28;21162;-54
2022/03/24 10:32:54;;;;;;;43.50;32.63;;;;;;;;;;5011823;28;20458;-54
2022/03/24 10:35:20;;;;;;;38.70;31.80;;;;;;;;;;5011962;28;20511;-52
2022/03/24 10:37:50;;;;;;;40.20;31.67;;;;;;;;;;5011856;28;20474;-53
2022/03/24 10:40:16;;;;;;;40.27;33.87;;;;;;;;;;5011462;28;20407;-54
2022/03/24 10:42:42;;;;;;;42.37;33.23;;;;;;;;;;5011636;28;20466;-53
2022/03/24 10:45:13;;;;;;;39.30;32.47;;;;;;;;;;5012003;28;20486;-54
2022/03/24 10:47:40;;;;;;;44.70;32.60;;;;;;;;;;5011793;28;20414;-52
2022/03/24 10:50:23;;;;;;;40.00;32.47;;;;;;;;;;5011473;28;20406;-53
2022/03/24 10:52:51;;;;;;;36.90;30.30;;;;;;;;;;5011454;28;20427;-53
2022/03/24 10:55:25;;;;;;;42.07;31.97;;;;;;;;;;5011743;28;20399;-53
2022/03/24 10:57:52;;;;;;;38.80;29.27;;;;;;;;;;5011870;28;20406;-52
2022/03/24 11:00:20;;;;;;;36.30;30.13;;;;;;;;;;5011538;28;20410;-52
2022/03/24 11:02:46;;;;;;;35.97;29.30;;;;;;;;;;5011402;28;20817;-52
2022/03/24 11:05:15;;;;;;;35.90;29.07;;;;;;;;;;5011690;28;20893;-54
2022/03/24 11:07:41;;;;;;;34.07;27.80;;;;;;;;;;5014060;28;20482;-52
2022/03/24 11:10:11;;;;;;;39.70;26.77;;;;;;;;;;5015075;28;20403;-53
2022/03/24 11:12:39;;;;;;;42.40;25.77;;;;;;;;;;5015177;28;20427;-53
2022/03/24 11:15:07;;;;;;;30.33;23.30;;;;;;;;;;5015260;28;20417;-52
2022/03/24 11:17:37;;;;;;;35.60;25.37;;;;;;;;;;5015097;28;20761;-53
2022/03/24 11:20:10;;;;;;;30.97;23.97;;;;;;;;;;5014928;28;20434;-52
2022/03/24 11:22:49;;;;;;;27.23;23.60;;;;;;;;;;5014884;28;20461;-52
2022/03/24 11:25:16;;;;;;;27.43;22.20;;;;;;;;;;5013972;28;20411;-54
2022/03/24 11:27:43;;;;;;;23.13;19.77;;;;;;;;;;5015028;28;20465;-53
2022/03/24 11:30:09;;;;;;;30.43;22.27;;;;;;;;;;5014670;28;20453;-53
2022/03/24 11:32:36;;;;;;;30.60;22.67;;;;;;;;;;5014514;28;20974;-53
2022/03/24 11:35:06;;;;;;;36.47;25.47;;;;;;;;;;5015081;28;20823;-53
2022/03/24 11:37:32;;;;;;;34.63;25.27;;;;;;;;;;5014832;28;20403;-53
2022/03/24 11:40:02;;;;;;;30.53;23.87;;;;;;;;;;5014613;28;20407;-54
2022/03/24 11:42:28;;;;;;;31.53;25.77;;;;;;;;;;5019934;28;20457;-54
2022/03/24 11:44:59;;;;;;;31.00;25.10;;;;;;;;;;5014689;28;20766;-52
2022/03/24 11:47:26;;;;;;;31.87;24.83;;;;;;;;;;5015133;28;20915;-54
2022/03/24 11:50:08;;;;;;;31.10;26.30;;;;;;;;;;5012659;28;20415;-52
2022/03/24 11:52:34;;;;;;;31.00;26.47;;;;;;;;;;5014224;28;21351;-53
2022/03/24 11:54:59;;;;;;;35.93;26.60;;;;;;;;;;5014463;28;20438;-53
2022/03/24 11:57:26;;;;;;;37.20;27.77;;;;;;;;;;5014309;28;20747;-54
2022/03/24 12:00:11;;;;;;;34.77;28.73;;;;;;;;;;5014181;28;20403;-53
2022/03/24 12:02:37;;;;;;;31.97;28.47;;;;;;;;;;5013850;28;20493;-52
2022/03/24 12:05:04;;;;;;;35.03;29.37;;;;;;;;;;5014349;28;20430;-53
2022/03/24 12:07:30;;;;;;;33.93;28.97;;;;;;;;;;5014222;28;20410;-54
2022/03/24 12:09:57;;;;;;;32.80;28.30;;;;;;;;;;5013860;28;20884;-53
2022/03/24 12:12:23;;;;;;;32.50;26.80;;;;;;;;;;5013901;28;21013;-53
2022/03/24 12:14:53;;;;;;;30.93;26.47;;;;;;;;;;5013975;28;20475;-52
2022/03/24 12:17:21;;;;;;;32.90;28.20;;;;;;;;;;5014053;28;20407;-54
2022/03/24 12:19:54;;;;;;;33.53;28.60;;;;;;;;;;5012911;28;20417;-54
2022/03/24 12:22:23;;;;;;;33.80;29.20;;;;;;;;;;5013535;28;20458;-52
2022/03/24 12:24:49;;;;;;;34.70;29.07;;;;;;;;;;5013901;28;20402;-53
2022/03/24 12:27:16;;;;;;;32.97;28.80;;;;;;;;;;5014026;28;20411;-54
2022/03/24 12:29:42;;;;;;;37.70;29.23;;;;;;;;;;5013622;28;20406;-54
2022/03/24 12:32:10;;;;;;;43.33;32.70;;;;;;;;;;5013613;28;20419;-53
2022/03/24 12:34:38;;;;;;;36.70;31.47;;;;;;;;;;5013639;28;20427;-54
2022/03/24 12:37:08;;;;;;;38.43;32.03;;;;;;;;;;5013425;28;20442;-54
2022/03/24 12:39:38;;;;;;;42.70;31.03;;;;;;;;;;5013515;28;20491;-53
2022/03/24 12:42:14;;;;;;;33.47;29.80;;;;;;;;;;5013563;28;20434;-52
2022/03/24 12:44:58;;;;;;;35.60;30.53;;;;;;;;;;5013565;28;20410;-52
2022/03/24 12:47:31;;;;;;;37.20;29.80;;;;;;;;;;5013422;28;20399;-52
2022/03/24 12:49:58;;;;;;;35.17;31.40;;;;;;;;;;5017519;28;20419;-53
2022/03/24 12:52:44;;;;;;;41.90;33.00;;;;;;;;;;5011407;28;20466;-52
2022/03/24 12:55:20;;;;;;;37.77;33.30;;;;;;;;;;5013133;28;20407;-54
2022/03/24 12:57:53;;;;;;;35.10;31.00;;;;;;;;;;5013084;28;20417;-52
2022/03/24 13:00:19;;;;;;;35.90;32.00;;;;;;;;;;5013035;28;20399;-52
2022/03/24 13:02:45;;;;;;;38.47;32.10;;;;;;;;;;5012828;28;20558;-53
2022/03/24 13:05:13;;;;;;;36.73;32.90;;;;;;;;;;5013138;28;20491;-52
2022/03/24 13:07:39;;;;;;;44.47;32.30;;;;;;;;;;5013569;28;20407;-53
2022/03/24 13:10:08;;;;;;;40.53;33.77;;;;;;;;;;5012812;28;20410;-53
2022/03/24 13:12:36;;;;;;;37.57;32.40;;;;;;;;;;5013276;28;20484;-51
2022/03/24 13:15:02;;;;;;;35.70;31.90;;;;;;;;;;5012932;28;20946;-50
2022/03/24 13:17:32;;;;;;;35.77;31.57;;;;;;;;;;5012897;28;20456;-51
2022/03/24 13:20:00;;;;;;;37.97;33.33;;;;;;;;;;5013548;28;20554;-50
2022/03/24 13:22:28;;;;;;;40.73;33.67;;;;;;;;;;5012689;28;20483;-50
2022/03/24 13:25:08;;;;;;;36.90;32.00;;;;;;;;;;5012798;28;20398;-50
2022/03/24 13:27:35;;;;;;;37.57;32.80;;;;;;;;;;5012826;28;20406;-50
2022/03/24 13:30:08;;;;;;;36.60;32.70;;;;;;;;;;5012495;28;20400;-51
2022/03/24 13:32:34;;;;;;;38.40;32.40;;;;;;;;;;5012652;28;20423;-51
2022/03/24 13:35:01;;;;;;;36.00;31.50;;;;;;;;;;5012523;28;20400;-51
2022/03/24 13:37:33;;;;;;;36.70;31.50;;;;;;;;;;5011818;28;20776;-51
2022/03/24 13:40:00;;;;;;;37.07;31.80;;;;;;;;;;5010771;28;20399;-49
2022/03/24 13:42:27;;;;;;;39.33;32.23;;;;;;;;;;5011983;28;20844;-50
2022/03/24 13:44:54;;;;;;;41.33;35.00;;;;;;;;;;5012392;28;20395;-50
2022/03/24 13:47:23;;;;;;;42.23;34.30;;;;;;;;;;5012260;28;20403;-51
2022/03/24 13:49:52;;;;;;;38.40;32.30;;;;;;;;;;5012106;28;20399;-50
2022/03/24 13:52:38;;;;;;;45.30;33.10;;;;;;;;;;5012096;28;20981;-50
2022/03/24 13:55:05;;;;;;;36.93;33.00;;;;;;;;;;5011996;28;20965;-50
2022/03/24 13:57:31;;;;;;;36.30;32.40;;;;;;;;;;5010813;28;20398;-51
2022/03/24 13:59:57;;;;;;;37.50;31.07;;;;;;;;;;5010257;28;20498;-51
2022/03/24 14:02:25;;;;;;;42.53;32.97;;;;;;;;;;5010437;28;20545;-51
2022/03/24 14:05:04;;;;;;;43.03;31.40;;;;;;;;;;5011442;28;20418;-51
2022/03/24 14:07:30;;;;;;;35.93;31.87;;;;;;;;;;5011295;28;20937;-52
2022/03/24 14:09:56;;;;;;;40.00;33.20;;;;;;;;;;5011152;28;20434;-52
2022/03/24 14:12:25;;;;;;;36.10;32.30;;;;;;;;;;5012855;28;20949;-50
2022/03/24 14:14:51;;;;;;;35.13;30.43;;;;;;;;;;5007346;28;20836;-52
2022/03/24 14:17:22;;;;;;;33.43;29.77;;;;;;;;;;5011866;28;20434;-50
2022/03/24 14:19:57;;;;;;;34.83;30.30;;;;;;;;;;5011644;28;20403;-51